createdAt,value
2023-05-24T00:00:42.375Z,4.20
2023-05-24T00:02:45.437Z,4.68
2023-05-24T00:04:49.614Z,3.95
2023-05-24T00:06:55.117Z,3.85
2023-05-24T00:08:58.217Z,3.72
2023-05-24T00:11:01.089Z,4.20
2023-05-24T00:13:03.831Z,3.75
2023-05-24T00:15:07.248Z,4.47
2023-05-24T00:17:10.269Z,4.05
2023-05-24T00:19:18.441Z,4.18
2023-05-24T00:21:21.698Z,3.97
2023-05-24T00:23:27.175Z,5.03
2023-05-24T00:25:29.793Z,4.38
2023-05-24T00:27:33.190Z,4.05
2023-05-24T00:29:36.330Z,4.13
2023-05-24T00:31:39.047Z,4.35
2023-05-24T00:33:41.866Z,4.40
2023-05-24T00:35:44.540Z,3.83
2023-05-24T00:37:47.112Z,4.03
2023-05-24T00:39:49.866Z,3.60
2023-05-24T00:41:52.712Z,3.33
2023-05-24T00:43:55.360Z,4.20
2023-05-24T00:46:27.283Z,4.20
2023-05-24T00:48:30.252Z,3.42
2023-05-24T00:50:33.470Z,3.80
2023-05-24T00:52:37.250Z,4.40
2023-05-24T00:54:40.947Z,4.57
2023-05-24T00:56:44.197Z,3.45
2023-05-24T00:58:47.386Z,4.15
2023-05-24T01:00:52.376Z,3.33
2023-05-24T01:02:55.330Z,3.85
2023-05-24T01:05:00.214Z,3.72
2023-05-24T01:07:05.859Z,3.90
2023-05-24T01:09:28.625Z,4.25
2023-05-24T01:11:33.902Z,4.55
2023-05-24T01:13:39.199Z,4.18
2023-05-24T01:15:50.701Z,4.13
2023-05-24T01:20:07.042Z,4.10
2023-05-24T01:22:21.613Z,3.72
2023-05-24T01:24:52.061Z,3.45
2023-05-24T01:27:07.931Z,3.78
2023-05-24T01:29:11.089Z,3.75
2023-05-24T01:31:15.995Z,3.95
2023-05-24T01:33:19.056Z,4.55
2023-05-24T01:35:21.963Z,3.40
2023-05-24T01:37:24.635Z,3.60
2023-05-24T01:39:29.894Z,4.00
2023-05-24T01:41:47.753Z,3.80
2023-05-24T01:44:08.836Z,4.85
2023-05-24T01:46:20.142Z,3.35
2023-05-24T01:48:47.530Z,3.75
2023-05-24T01:50:57.831Z,3.65
2023-05-24T01:53:06.702Z,5.25
2023-05-24T01:55:10.490Z,4.55
2023-05-24T01:57:13.440Z,4.45
2023-05-24T01:59:16.673Z,4.10
2023-05-24T02:01:19.900Z,4.40
2023-05-24T02:03:23.022Z,4.15
2023-05-24T02:05:25.742Z,3.97
2023-05-24T02:07:31.822Z,3.78
2023-05-24T02:09:34.630Z,3.90
2023-05-24T02:11:37.330Z,4.32
2023-05-24T02:13:40.536Z,3.40
2023-05-24T02:15:43.478Z,3.92
2023-05-24T02:17:46.464Z,3.92
2023-05-24T02:19:49.288Z,3.70
2023-05-24T02:21:53.247Z,4.22
2023-05-24T02:23:56.082Z,4.13
2023-05-24T02:25:58.802Z,4.35
2023-05-24T02:28:02.243Z,4.25
2023-05-24T02:30:07.058Z,3.63
2023-05-24T02:32:09.700Z,3.72
2023-05-24T02:34:12.398Z,3.92
2023-05-24T02:36:15.001Z,4.38
2023-05-24T02:38:17.576Z,3.50
2023-05-24T02:40:20.321Z,4.22
2023-05-24T02:42:24.207Z,4.30
2023-05-24T02:44:26.842Z,4.78
2023-05-24T02:46:29.562Z,4.40
2023-05-24T02:48:32.487Z,3.47
2023-05-24T02:50:35.118Z,4.75
2023-05-24T02:52:37.831Z,3.22
2023-05-24T02:54:40.999Z,3.80
2023-05-24T02:56:43.624Z,4.15
2023-05-24T02:58:46.390Z,3.80
2023-05-24T03:00:49.158Z,4.35
2023-05-24T03:02:52.785Z,3.97
2023-05-24T03:04:56.142Z,4.50
2023-05-24T03:06:58.769Z,3.33
2023-05-24T03:09:01.374Z,3.83
2023-05-24T03:11:04.126Z,3.88
2023-05-24T03:13:06.753Z,3.42
2023-05-24T03:15:10.062Z,3.58
2023-05-24T03:17:12.788Z,3.65
2023-05-24T03:19:17.491Z,3.70
2023-05-24T03:21:21.088Z,3.78
2023-05-24T03:23:23.866Z,3.45
2023-05-24T03:25:27.530Z,4.05
2023-05-24T03:27:30.137Z,4.20
2023-05-24T03:29:32.928Z,3.90
2023-05-24T03:31:35.855Z,3.95
2023-05-24T03:33:38.934Z,4.00
2023-05-24T03:35:41.645Z,3.10
2023-05-24T03:37:44.231Z,4.72
2023-05-24T03:39:46.827Z,3.72
2023-05-24T03:41:49.599Z,3.55
2023-05-24T03:43:53.076Z,3.97
2023-05-24T03:45:56.192Z,4.07
2023-05-24T03:47:58.983Z,4.30
2023-05-24T03:50:01.709Z,3.50
2023-05-24T03:52:07.518Z,4.22
2023-05-24T03:54:10.415Z,3.75
2023-05-24T03:56:13.063Z,3.92
2023-05-24T03:58:15.724Z,4.40
2023-05-24T04:00:18.702Z,4.03
2023-05-24T04:02:21.374Z,3.72
2023-05-24T04:04:24.295Z,3.97
2023-05-24T04:06:29.615Z,4.20
2023-05-24T04:08:32.625Z,3.75
2023-05-24T04:10:35.401Z,4.30
2023-05-24T04:12:38.148Z,4.38
2023-05-24T04:14:40.998Z,3.60
2023-05-24T04:16:45.333Z,3.53
2023-05-24T04:18:48.288Z,3.67
2023-05-24T04:20:51.230Z,3.92
2023-05-24T04:22:54.660Z,4.50
2023-05-24T04:24:57.420Z,3.83
2023-05-24T04:27:00.266Z,3.78
2023-05-24T04:29:03.937Z,4.28
2023-05-24T04:31:06.945Z,4.03
2023-05-24T04:33:09.657Z,3.58
2023-05-24T04:35:12.789Z,4.00
2023-05-24T04:37:17.416Z,3.95
2023-05-24T04:39:22.324Z,3.58
2023-05-24T04:41:25.077Z,3.50
2023-05-24T04:43:28.416Z,4.18
2023-05-24T04:45:33.159Z,3.45
2023-05-24T04:47:35.960Z,3.33
2023-05-24T04:49:39.795Z,3.80
2023-05-24T04:51:42.829Z,3.22
2023-05-24T04:53:46.049Z,3.92
2023-05-24T04:55:49.582Z,3.65
2023-05-24T04:57:52.364Z,3.42
2023-05-24T04:59:55.198Z,3.90
2023-05-24T05:01:59.020Z,4.53
2023-05-24T05:04:04.671Z,4.18
2023-05-24T05:06:07.464Z,2.63
2023-05-24T05:08:10.185Z,3.50
2023-05-24T05:10:12.930Z,3.70
2023-05-24T05:12:15.671Z,2.97
2023-05-24T05:14:18.392Z,3.53
2023-05-24T05:16:21.247Z,3.50
2023-05-24T05:18:23.844Z,3.60
2023-05-24T05:20:26.605Z,3.80
2023-05-24T05:22:31.216Z,3.22
2023-05-24T05:24:34.212Z,3.83
2023-05-24T05:26:36.885Z,3.00
2023-05-24T05:28:39.509Z,2.90
2023-05-24T05:30:42.482Z,3.63
2023-05-24T05:32:45.457Z,3.08
2023-05-24T05:34:48.110Z,3.63
2023-05-24T05:36:50.851Z,3.70
2023-05-24T05:38:54.785Z,4.47
2023-05-24T05:40:57.433Z,3.88
2023-05-24T05:43:00.196Z,3.25
2023-05-24T05:45:03.585Z,4.07
2023-05-24T05:47:09.751Z,3.42
2023-05-24T05:49:14.040Z,3.97
2023-05-24T05:51:16.656Z,4.15
2023-05-24T05:53:19.438Z,2.60
2023-05-24T05:55:22.251Z,2.90
2023-05-24T05:57:25.131Z,3.60
2023-05-24T05:59:27.917Z,3.40
2023-05-24T06:01:30.615Z,3.35
2023-05-24T06:03:33.302Z,3.15
2023-05-24T06:05:36.215Z,2.80
2023-05-24T06:07:38.885Z,3.47
2023-05-24T06:09:41.940Z,3.53
2023-05-24T06:11:45.367Z,2.63
2023-05-24T06:13:48.187Z,2.65
2023-05-24T06:15:52.907Z,3.65
2023-05-24T06:17:55.713Z,2.95
2023-05-24T06:19:58.364Z,2.70
2023-05-24T06:22:01.566Z,3.03
2023-05-24T06:24:04.990Z,2.75
2023-05-24T06:26:09.788Z,2.67
2023-05-24T06:28:12.469Z,3.25
2023-05-24T06:30:15.450Z,3.28
2023-05-24T06:32:18.349Z,3.45
2023-05-24T06:34:24.054Z,2.88
2023-05-24T06:36:27.522Z,3.20
2023-05-24T06:38:30.215Z,3.45
2023-05-24T06:40:32.832Z,2.85
2023-05-24T06:42:37.189Z,2.63
2023-05-24T06:44:41.352Z,3.10
2023-05-24T06:46:44.088Z,2.42
2023-05-24T06:48:47.832Z,3.17
2023-05-24T06:50:50.869Z,3.17
2023-05-24T06:52:53.473Z,3.50
2023-05-24T06:54:56.739Z,3.08
2023-05-24T06:56:59.580Z,3.13
2023-05-24T06:59:02.482Z,2.58
2023-05-24T07:01:05.531Z,2.90
2023-05-24T07:03:10.017Z,2.70
2023-05-24T07:05:12.848Z,2.50
2023-05-24T07:07:16.096Z,2.65
2023-05-24T07:09:19.737Z,2.78
2023-05-24T07:11:22.972Z,3.85
2023-05-24T07:13:25.813Z,3.00
2023-05-24T07:15:28.399Z,2.58
2023-05-24T07:17:31.292Z,2.47
2023-05-24T07:19:36.179Z,2.58
2023-05-24T07:21:38.896Z,3.15
2023-05-24T07:23:41.502Z,2.60
2023-05-24T07:25:44.211Z,2.17
2023-05-24T07:27:46.996Z,2.72
2023-05-24T07:29:50.565Z,2.63
2023-05-24T07:31:56.304Z,3.80
2023-05-24T07:33:59.260Z,3.15
2023-05-24T07:36:02.919Z,2.78
2023-05-24T07:38:05.969Z,2.60
2023-05-24T07:40:12.744Z,3.05
2023-05-24T07:42:15.384Z,2.65
2023-05-24T07:44:19.513Z,2.50
2023-05-24T07:46:22.810Z,2.42
2023-05-24T07:48:26.157Z,2.53
2023-05-24T07:50:29.496Z,1.80
2023-05-24T07:52:32.250Z,2.40
2023-05-24T07:54:34.825Z,2.40
2023-05-24T07:56:37.951Z,2.58
2023-05-24T07:58:42.134Z,2.55
2023-05-24T08:00:45.319Z,2.28
2023-05-24T08:02:47.981Z,2.13
2023-05-24T08:04:50.761Z,1.88
2023-05-24T08:06:54.483Z,2.63
2023-05-24T08:08:57.206Z,2.80
2023-05-24T08:11:00.003Z,2.17
2023-05-24T08:13:03.521Z,2.13
2023-05-24T08:15:06.917Z,2.05
2023-05-24T08:17:09.673Z,2.35
2023-05-24T08:19:12.325Z,2.60
2023-05-24T08:21:14.986Z,2.67
2023-05-24T08:23:17.776Z,2.47
2023-05-24T08:25:21.107Z,2.35
2023-05-24T08:27:23.996Z,2.40
2023-05-24T08:29:26.795Z,1.67
2023-05-24T08:31:29.580Z,2.25
2023-05-24T08:33:32.936Z,1.92
2023-05-24T08:35:36.303Z,2.20
2023-05-24T08:37:38.969Z,2.55
2023-05-24T08:39:41.693Z,2.00
2023-05-24T08:41:49.520Z,2.55
2023-05-24T08:44:02.679Z,2.65
2023-05-24T08:46:07.340Z,2.03
2023-05-24T08:48:10.435Z,2.55
2023-05-24T08:50:13.782Z,2.50
2023-05-24T08:52:16.958Z,2.78
2023-05-24T08:54:20.428Z,2.65
2023-05-24T08:56:24.290Z,2.60
2023-05-24T08:58:27.282Z,2.92
2023-05-24T09:00:29.980Z,2.95
2023-05-24T09:02:33.713Z,2.88
2023-05-24T09:04:37.476Z,2.80
2023-05-24T09:06:40.574Z,2.60
2023-05-24T09:08:44.215Z,2.55
2023-05-24T09:10:54.877Z,2.13
2023-05-24T09:12:58.887Z,2.55
2023-05-24T09:15:01.864Z,2.95
2023-05-24T09:17:08.541Z,2.20
2023-05-24T09:19:12.021Z,2.60
2023-05-24T09:21:15.235Z,2.17
2023-05-24T09:23:18.756Z,2.50
2023-05-24T09:25:21.918Z,2.42
2023-05-24T09:27:24.661Z,2.03
2023-05-24T09:29:27.226Z,2.22
2023-05-24T09:31:37.438Z,3.08
2023-05-24T09:33:40.544Z,2.67
2023-05-24T09:35:44.403Z,2.33
2023-05-24T09:37:47.433Z,2.65
2023-05-24T09:39:51.947Z,2.08
2023-05-24T09:41:56.929Z,2.45
2023-05-24T09:43:59.793Z,2.38
2023-05-24T09:46:03.827Z,2.05
2023-05-24T09:48:11.213Z,2.05
2023-05-24T09:50:16.369Z,2.55
2023-05-24T09:52:19.332Z,2.80
2023-05-24T09:54:22.201Z,2.30
2023-05-24T09:56:24.981Z,2.30
2023-05-24T09:58:33.687Z,1.77
2023-05-24T10:00:41.589Z,2.08
2023-05-24T10:02:52.340Z,2.05
2023-05-24T10:05:03.432Z,1.65
2023-05-24T10:07:08.715Z,1.67
2023-05-24T10:09:11.923Z,1.88
2023-05-24T10:11:14.628Z,2.17
2023-05-24T10:13:18.326Z,2.17
2023-05-24T10:15:21.156Z,2.80
2023-05-24T10:17:28.150Z,1.88
2023-05-24T10:19:34.640Z,2.25
2023-05-24T10:21:42.912Z,2.13
2023-05-24T10:23:52.932Z,2.13
2023-05-24T10:26:04.046Z,2.42
2023-05-24T10:28:12.652Z,2.60
2023-05-24T10:30:21.306Z,2.85
2023-05-24T10:32:25.418Z,2.70
2023-05-24T10:34:28.853Z,2.28
2023-05-24T10:36:32.972Z,2.10
2023-05-24T10:38:41.075Z,2.60
2023-05-24T10:40:44.033Z,1.88
2023-05-24T10:42:49.169Z,2.30
2023-05-24T10:44:52.376Z,2.10
2023-05-24T10:47:12.527Z,1.60
2023-05-24T10:49:16.333Z,2.15
2023-05-24T10:51:38.627Z,1.83
2023-05-24T10:53:41.823Z,2.20
2023-05-24T10:55:56.494Z,1.85
2023-05-24T10:57:59.275Z,3.67
2023-05-24T11:02:36.225Z,2.33
2023-05-24T11:04:43.671Z,2.30
2023-05-24T11:06:50.181Z,1.75
2023-05-24T11:08:53.989Z,2.08
2023-05-24T11:11:22.533Z,1.98
2023-05-24T11:13:28.166Z,2.58
2023-05-24T11:15:30.906Z,2.20
2023-05-24T11:18:14.905Z,2.13
2023-05-24T11:20:18.241Z,3.45
2023-05-24T11:22:23.070Z,2.92
2023-05-24T11:24:27.516Z,1.98
2023-05-24T11:26:30.669Z,2.08
2023-05-24T11:28:37.553Z,2.50
2023-05-24T11:30:48.124Z,2.30
2023-05-24T11:32:50.955Z,2.05
2023-05-24T11:34:53.683Z,2.22
2023-05-24T11:36:56.647Z,2.03
2023-05-24T11:38:59.448Z,1.95
2023-05-24T11:41:02.046Z,2.22
2023-05-24T11:43:07.058Z,2.25
2023-05-24T11:45:10.682Z,2.08
2023-05-24T11:47:13.658Z,2.10
2023-05-24T11:49:17.555Z,2.03
2023-05-24T11:51:29.923Z,1.67
2023-05-24T11:53:32.579Z,2.28
2023-05-24T11:55:35.257Z,2.08
2023-05-24T11:57:41.409Z,2.40
2023-05-24T11:59:44.157Z,2.33
2023-05-24T12:01:46.829Z,1.98
2023-05-24T12:03:50.048Z,1.55
2023-05-24T12:05:57.480Z,2.13
2023-05-24T12:08:12.681Z,2.15
2023-05-24T12:10:21.520Z,2.00
2023-05-24T12:12:30.887Z,2.28
2023-05-24T12:14:41.054Z,1.83
2023-05-24T12:16:45.644Z,2.90
2023-05-24T12:19:02.294Z,1.90
2023-05-24T12:21:14.015Z,2.13
2023-05-24T12:23:21.937Z,2.83
2023-05-24T12:25:27.170Z,2.20
2023-05-24T12:27:31.585Z,1.63
2023-05-24T12:29:41.213Z,2.40
2023-05-24T12:31:47.979Z,2.08
2023-05-24T12:33:52.150Z,2.47
2023-05-24T12:35:57.035Z,2.08
2023-05-24T12:38:00.358Z,1.75
2023-05-24T12:40:05.385Z,2.03
2023-05-24T12:42:09.134Z,2.22
2023-05-24T12:44:12.678Z,2.45
2023-05-24T12:46:15.534Z,2.05
2023-05-24T12:48:18.646Z,1.52
2023-05-24T12:50:22.893Z,1.88
2023-05-24T12:52:25.605Z,2.30
2023-05-24T12:54:29.576Z,1.90
2023-05-24T12:56:32.359Z,1.52
2023-05-24T12:58:34.971Z,2.10
2023-05-24T13:00:38.314Z,1.88
2023-05-24T13:02:41.112Z,2.20
2023-05-24T13:04:43.991Z,1.85
2023-05-24T13:06:48.352Z,2.33
2023-05-24T13:08:51.225Z,2.28
2023-05-24T13:10:54.079Z,1.88
2023-05-24T13:12:57.639Z,1.95
2023-05-24T13:15:00.479Z,2.20
2023-05-24T13:17:03.211Z,1.88
2023-05-24T13:19:05.989Z,2.00
2023-05-24T13:21:11.375Z,1.90
2023-05-24T13:23:14.965Z,2.33
2023-05-24T13:25:17.674Z,2.03
2023-05-24T13:27:20.299Z,2.00
2023-05-24T13:29:36.848Z,1.52
2023-05-24T13:31:43.001Z,2.20
2023-05-24T13:33:45.880Z,2.90
2023-05-24T13:35:48.559Z,2.20
2023-05-24T13:37:52.926Z,2.47
2023-05-24T13:39:56.189Z,2.30
2023-05-24T13:42:01.058Z,2.00
2023-05-24T13:44:04.028Z,1.77
2023-05-24T13:46:06.757Z,2.08
2023-05-24T13:48:10.433Z,2.47
2023-05-24T13:50:13.166Z,3.20
2023-05-24T13:52:16.620Z,2.17
2023-05-24T13:54:19.426Z,2.28
2023-05-24T13:56:24.340Z,2.53
2023-05-24T13:58:26.959Z,2.05
2023-05-24T14:00:29.590Z,2.65
2023-05-24T14:02:32.305Z,2.75
2023-05-24T14:04:35.084Z,2.13
2023-05-24T14:06:38.537Z,2.20
2023-05-24T14:08:41.695Z,2.97
2023-05-24T14:10:45.228Z,2.45
2023-05-24T14:12:59.605Z,2.80
2023-05-24T14:15:07.659Z,2.85
2023-05-24T14:17:11.330Z,2.03
2023-05-24T14:19:13.971Z,2.75
2023-05-24T14:21:19.168Z,1.98
2023-05-24T14:23:21.872Z,2.30
2023-05-24T14:25:24.462Z,2.90
2023-05-24T14:27:27.242Z,1.83
2023-05-24T14:29:30.047Z,2.25
2023-05-24T14:31:34.394Z,2.80
2023-05-24T14:33:38.166Z,2.38
2023-05-24T14:35:41.406Z,2.60
2023-05-24T14:37:44.292Z,2.45
2023-05-24T14:39:47.041Z,2.97
2023-05-24T14:41:49.720Z,2.83
2023-05-24T14:43:52.459Z,1.65
2023-05-24T14:45:55.265Z,2.38
2023-05-24T14:47:58.412Z,2.40
2023-05-24T14:50:01.174Z,2.70
2023-05-24T14:52:04.182Z,2.58
2023-05-24T14:54:07.407Z,2.45
2023-05-24T14:56:11.081Z,2.15
2023-05-24T14:58:15.557Z,2.45
2023-05-24T15:00:21.573Z,1.67
2023-05-24T15:02:25.497Z,2.78
2023-05-24T15:04:28.390Z,2.65
2023-05-24T15:06:35.010Z,2.63
2023-05-24T15:08:37.883Z,2.80
2023-05-24T15:10:40.980Z,2.05
2023-05-24T15:12:44.572Z,2.33
2023-05-24T15:14:47.186Z,2.42
2023-05-24T15:16:51.105Z,3.03
2023-05-24T15:18:53.983Z,2.67
2023-05-24T15:20:56.831Z,2.67
2023-05-24T15:23:03.761Z,2.72
2023-05-24T15:25:07.368Z,2.20
2023-05-24T15:27:10.815Z,2.40
2023-05-24T15:29:13.528Z,2.45
2023-05-24T15:31:16.305Z,2.13
2023-05-24T15:33:19.056Z,2.80
2023-05-24T15:35:21.901Z,2.25
2023-05-24T15:37:24.507Z,2.95
2023-05-24T15:39:27.143Z,2.25
2023-05-24T15:41:29.842Z,2.40
2023-05-24T15:43:32.450Z,2.58
2023-05-24T15:45:35.465Z,2.03
2023-05-24T15:47:40.443Z,2.13
2023-05-24T15:49:43.381Z,2.50
2023-05-24T15:52:03.659Z,2.25
2023-05-24T15:54:07.406Z,2.63
2023-05-24T15:56:10.414Z,2.13
2023-05-24T15:58:14.596Z,3.85
2023-05-24T16:00:18.350Z,2.88
2023-05-24T16:02:21.547Z,2.65
2023-05-24T16:04:24.419Z,3.35
2023-05-24T16:06:27.062Z,3.75
2023-05-24T16:08:30.164Z,3.00
2023-05-24T16:10:32.777Z,3.63
2023-05-24T16:12:35.536Z,3.53
2023-05-24T16:14:38.202Z,3.17
2023-05-24T16:16:42.184Z,3.25
2023-05-24T16:18:44.824Z,2.33
2023-05-24T16:20:51.123Z,3.20
2023-05-24T16:22:54.183Z,3.00
2023-05-24T16:24:56.870Z,3.25
2023-05-24T16:26:59.613Z,3.45
2023-05-24T16:29:02.212Z,3.53
2023-05-24T16:31:04.901Z,2.88
2023-05-24T16:33:07.799Z,3.75
2023-05-24T16:35:10.870Z,3.40
2023-05-24T16:37:13.523Z,2.45
2023-05-24T16:39:16.377Z,2.95
2023-05-24T16:41:19.002Z,2.38
2023-05-24T16:43:21.834Z,3.60
2023-05-24T16:45:24.560Z,3.47
2023-05-24T16:47:29.583Z,3.58
2023-05-24T16:49:32.611Z,3.15
2023-05-24T16:51:35.541Z,3.05
2023-05-24T16:53:38.665Z,4.22
2023-05-24T16:55:41.530Z,3.40
2023-05-24T16:57:44.292Z,3.25
2023-05-24T16:59:50.581Z,2.58
2023-05-24T17:01:53.633Z,2.95
2023-05-24T17:03:56.750Z,3.58
2023-05-24T17:06:05.145Z,3.13
2023-05-24T17:08:08.530Z,2.80
2023-05-24T17:10:11.643Z,2.80
2023-05-24T17:12:14.292Z,2.83
2023-05-24T17:14:16.823Z,3.10
2023-05-24T17:16:19.743Z,2.65
2023-05-24T17:18:28.397Z,3.05
2023-05-24T17:20:31.829Z,3.40
2023-05-24T17:22:34.819Z,3.10
2023-05-24T17:24:37.533Z,3.78
2023-05-24T17:26:42.294Z,2.85
2023-05-24T17:28:45.379Z,3.17
2023-05-24T17:30:48.666Z,3.42
2023-05-24T17:32:51.394Z,2.75
2023-05-24T17:34:54.126Z,2.90
2023-05-24T17:36:56.728Z,3.08
2023-05-24T17:38:59.682Z,2.85
2023-05-24T17:41:02.337Z,2.97
2023-05-24T17:43:05.052Z,3.35
2023-05-24T17:45:08.651Z,3.25
2023-05-24T17:47:11.286Z,2.90
2023-05-24T17:49:14.289Z,2.90
2023-05-24T17:51:19.676Z,3.13
2023-05-24T17:53:31.266Z,2.28
2023-05-24T17:55:35.315Z,3.00
2023-05-24T17:57:38.108Z,2.53
2023-05-24T17:59:40.722Z,2.97
2023-05-24T18:01:45.253Z,3.25
2023-05-24T18:03:48.931Z,2.83
2023-05-24T18:05:52.969Z,2.67
2023-05-24T18:07:55.812Z,2.92
2023-05-24T18:10:00.196Z,2.58
2023-05-24T18:12:03.311Z,2.53
2023-05-24T18:14:05.918Z,3.17
2023-05-24T18:16:11.125Z,3.05
2023-05-24T18:18:13.908Z,3.20
2023-05-24T18:20:16.601Z,2.63
2023-05-24T18:22:19.506Z,2.45
2023-05-24T18:24:22.078Z,3.08
2023-05-24T18:26:24.734Z,2.90
2023-05-24T18:28:27.542Z,3.38
2023-05-24T18:30:30.204Z,2.80
2023-05-24T18:32:55.957Z,3.17
2023-05-24T18:35:06.535Z,3.10
2023-05-24T18:37:09.140Z,3.25
2023-05-24T18:39:11.826Z,3.15
2023-05-24T18:41:15.224Z,2.85
2023-05-24T18:43:17.833Z,3.08
2023-05-24T18:45:20.423Z,2.72
2023-05-24T18:47:23.323Z,3.58
2023-05-24T18:49:25.948Z,2.88
2023-05-24T18:51:28.834Z,2.83
2023-05-24T18:53:31.632Z,2.95
2023-05-24T18:55:34.218Z,2.90
2023-05-24T18:57:38.245Z,2.97
2023-05-24T18:59:41.117Z,2.83
2023-05-24T19:01:44.461Z,2.53
2023-05-24T19:03:47.012Z,2.72
2023-05-24T19:05:49.971Z,2.63
2023-05-24T19:07:53.036Z,2.90
2023-05-24T19:09:55.583Z,2.92
2023-05-24T19:11:59.364Z,3.35
2023-05-24T19:14:02.128Z,1.75
2023-05-24T19:16:04.938Z,2.83
2023-05-24T19:18:07.952Z,2.55
2023-05-24T19:20:11.764Z,2.70
2023-05-24T19:22:14.427Z,2.13
2023-05-24T19:24:17.024Z,2.42
2023-05-24T19:26:19.853Z,2.45
2023-05-24T19:28:22.509Z,2.10
2023-05-24T19:30:25.108Z,2.45
2023-05-24T19:32:27.906Z,2.25
2023-05-24T19:34:35.394Z,2.25
2023-05-24T19:36:38.001Z,2.40
2023-05-24T19:38:40.997Z,2.20
2023-05-24T19:40:43.646Z,2.70
2023-05-24T19:42:46.288Z,2.70
2023-05-24T19:44:48.931Z,2.35
2023-05-24T19:46:51.750Z,2.70
2023-05-24T19:48:54.459Z,1.90
2023-05-24T19:50:57.063Z,2.65
2023-05-24T19:52:59.702Z,1.83
2023-05-24T19:55:02.347Z,1.90
2023-05-24T19:57:08.964Z,2.40
2023-05-24T19:59:11.680Z,2.55
2023-05-24T20:01:14.584Z,2.08
2023-05-24T20:03:17.449Z,2.60
2023-05-24T20:05:20.128Z,2.17
2023-05-24T20:07:22.722Z,2.88
2023-05-24T20:09:25.395Z,2.25
2023-05-24T20:11:28.291Z,2.20
2023-05-24T20:13:31.026Z,2.13
2023-05-24T20:15:33.696Z,2.83
2023-05-24T20:17:36.506Z,2.22
2023-05-24T20:19:39.252Z,2.30
2023-05-24T20:21:41.926Z,2.55
2023-05-24T20:23:44.585Z,2.28
2023-05-24T20:25:47.514Z,2.38
2023-05-24T20:27:50.263Z,1.92
2023-05-24T20:29:52.819Z,1.80
2023-05-24T20:31:55.975Z,2.42
2023-05-24T20:33:58.697Z,2.40
2023-05-24T20:36:01.284Z,2.25
2023-05-24T20:38:03.916Z,2.25
2023-05-24T20:40:07.769Z,2.08
2023-05-24T20:42:11.225Z,2.30
2023-05-24T20:44:13.901Z,2.00
2023-05-24T20:46:16.851Z,2.40
2023-05-24T20:48:19.584Z,3.25
2023-05-24T20:50:22.479Z,1.95
2023-05-24T20:52:25.252Z,2.65
2023-05-24T20:54:28.665Z,2.30
2023-05-24T20:56:40.010Z,2.55
2023-05-24T20:58:47.499Z,1.88
2023-05-24T21:00:50.360Z,2.17
2023-05-24T21:02:53.357Z,2.00
2023-05-24T21:04:56.608Z,2.08
2023-05-24T21:06:59.369Z,1.85
2023-05-24T21:09:02.387Z,2.15
2023-05-24T21:11:05.301Z,1.95
2023-05-24T21:13:08.323Z,2.33
2023-05-24T21:15:10.941Z,1.85
2023-05-24T21:17:13.770Z,1.77
2023-05-24T21:19:16.644Z,2.03
2023-05-24T21:21:19.422Z,1.98
2023-05-24T21:23:22.209Z,2.03
2023-05-24T21:25:25.069Z,2.67
2023-05-24T21:27:27.870Z,1.83
2023-05-24T21:29:30.614Z,2.38
2023-05-24T21:31:35.860Z,2.65
2023-05-24T21:33:42.783Z,2.13
2023-05-24T21:35:45.743Z,1.90
2023-05-24T21:37:48.796Z,2.45
2023-05-24T21:39:51.405Z,2.47
2023-05-24T21:41:54.078Z,1.90
2023-05-24T21:43:56.709Z,1.88
2023-05-24T21:45:59.304Z,1.75
2023-05-24T21:48:01.980Z,2.13
2023-05-24T21:50:05.482Z,1.98
2023-05-24T21:52:08.413Z,2.13
2023-05-24T21:54:11.246Z,2.13
2023-05-24T21:56:13.819Z,1.75
2023-05-24T21:58:16.509Z,2.15
2023-05-24T22:00:22.031Z,1.75
2023-05-24T22:02:25.271Z,2.25
2023-05-24T22:04:28.066Z,2.40
2023-05-24T22:06:31.446Z,1.63
2023-05-24T22:08:34.097Z,2.38
2023-05-24T22:10:36.772Z,2.17
2023-05-24T22:12:39.450Z,2.33
2023-05-24T22:14:42.047Z,1.95
2023-05-24T22:16:44.821Z,2.10
2023-05-24T22:18:48.185Z,2.08
2023-05-24T22:20:51.081Z,1.95
2023-05-24T22:22:53.895Z,2.08
2023-05-24T22:24:56.744Z,2.40
2023-05-24T22:27:01.407Z,2.03
2023-05-24T22:29:04.545Z,2.30
2023-05-24T22:31:07.240Z,1.73
2023-05-24T22:33:10.576Z,2.38
2023-05-24T22:35:13.250Z,1.88
2023-05-24T22:37:17.082Z,2.65
2023-05-24T22:39:19.821Z,1.88
2023-05-24T22:41:23.061Z,2.00
2023-05-24T22:43:25.781Z,2.40
2023-05-24T22:45:28.349Z,2.42
2023-05-24T22:47:33.493Z,2.03
2023-05-24T22:49:36.665Z,2.33
2023-05-24T22:51:44.441Z,1.85
2023-05-24T22:53:48.028Z,2.17
2023-05-24T22:55:50.898Z,2.17
2023-05-24T22:57:53.608Z,1.80
2023-05-24T22:59:56.161Z,2.35
2023-05-24T23:01:58.902Z,2.58
2023-05-24T23:04:18.973Z,2.15
2023-05-24T23:06:25.711Z,2.05
2023-05-24T23:08:28.372Z,1.98
2023-05-24T23:10:31.349Z,2.25
2023-05-24T23:12:34.369Z,2.20
2023-05-24T23:14:38.669Z,1.48
2023-05-24T23:16:45.697Z,2.03
2023-05-24T23:18:48.686Z,1.60
2023-05-24T23:20:54.342Z,2.28
2023-05-24T23:22:59.010Z,1.90
2023-05-24T23:25:02.604Z,2.22
2023-05-24T23:27:07.034Z,1.95
2023-05-24T23:29:09.863Z,2.20
2023-05-24T23:31:12.794Z,2.60
2023-05-24T23:33:15.682Z,2.10
2023-05-24T23:35:18.226Z,2.40
2023-05-24T23:37:20.992Z,2.03
2023-05-24T23:39:23.633Z,1.70
2023-05-24T23:41:26.670Z,2.25
2023-05-24T23:43:29.488Z,1.60
2023-05-24T23:45:32.427Z,1.77
2023-05-24T23:47:35.073Z,2.35
2023-05-24T23:49:37.832Z,2.22
2023-05-24T23:51:40.649Z,1.92
2023-05-24T23:53:43.238Z,2.10
2023-05-24T23:55:46.587Z,2.72
2023-05-24T23:57:49.501Z,2.17
2023-05-24T23:59:52.179Z,1.85
